createdAt,value
2019-04-30T00:00:57.874Z,14.63
2019-04-30T00:03:32.461Z,14.65
2019-04-30T00:06:01.866Z,14.47
2019-04-30T00:08:35.503Z,14.39
2019-04-30T00:11:02.450Z,14.44
2019-04-30T00:13:31.954Z,14.39
2019-04-30T00:16:01.695Z,14.41
2019-04-30T00:18:37.915Z,14.44
2019-04-30T00:21:02.499Z,14.50
2019-04-30T00:23:31.850Z,14.49
2019-04-30T00:26:06.248Z,14.39
2019-04-30T00:28:32.559Z,14.28
2019-04-30T00:31:01.922Z,14.35
2019-04-30T00:33:31.287Z,14.18
2019-04-30T00:36:01.144Z,14.22
2019-04-30T00:38:34.290Z,14.19
2019-04-30T00:41:05.817Z,14.17
2019-04-30T00:43:32.857Z,14.08
2019-04-30T00:46:02.331Z,14.00
2019-04-30T00:48:31.871Z,14.00
2019-04-30T00:51:01.275Z,14.02
2019-04-30T00:53:30.652Z,13.98
2019-04-30T00:56:00.115Z,13.83
2019-04-30T00:58:30.336Z,13.79
2019-04-30T01:01:27.861Z,13.85
2019-04-30T01:04:05.035Z,13.84
2019-04-30T01:06:35.022Z,13.88
2019-04-30T01:09:08.523Z,13.90
2019-04-30T01:11:39.864Z,13.90
2019-04-30T01:14:07.207Z,13.76
2019-04-30T01:16:36.686Z,13.81
2019-04-30T01:19:12.642Z,13.63
2019-04-30T01:21:40.184Z,13.64
2019-04-30T01:24:08.974Z,13.80
2019-04-30T01:26:39.336Z,13.74
2019-04-30T01:29:10.263Z,13.66
2019-04-30T01:31:40.763Z,13.67
2019-04-30T01:34:13.934Z,13.68
2019-04-30T01:36:43.501Z,13.61
2019-04-30T01:39:12.945Z,13.62
2019-04-30T01:41:42.354Z,13.54
2019-04-30T01:44:12.230Z,13.54
2019-04-30T01:46:43.190Z,13.56
2019-04-30T01:49:12.791Z,13.64
2019-04-30T01:51:42.359Z,13.56
2019-04-30T01:54:13.763Z,13.69
2019-04-30T01:56:59.381Z,13.63
2019-04-30T01:59:35.468Z,13.55
2019-04-30T02:02:05.730Z,13.52
2019-04-30T02:04:35.193Z,13.55
2019-04-30T02:07:04.562Z,13.44
2019-04-30T02:09:33.971Z,13.43
2019-04-30T02:12:03.457Z,13.42
2019-04-30T02:14:32.921Z,13.44
2019-04-30T02:17:02.328Z,13.37
2019-04-30T02:19:31.691Z,13.31
2019-04-30T02:22:01.172Z,13.22
2019-04-30T02:24:30.567Z,13.26
2019-04-30T02:27:00.116Z,13.33
2019-04-30T02:29:29.781Z,13.22
2019-04-30T02:32:00.564Z,13.24
2019-04-30T02:34:41.114Z,13.28
2019-04-30T02:37:17.394Z,13.16
2019-04-30T02:39:46.896Z,13.18
2019-04-30T02:42:20.138Z,13.13
2019-04-30T02:44:50.583Z,12.98
2019-04-30T02:47:22.253Z,12.97
2019-04-30T02:50:10.171Z,12.98
2019-04-30T02:52:29.329Z,13.02
2019-04-30T02:55:01.310Z,13.07
2019-04-30T02:57:30.786Z,13.04
2019-04-30T03:00:25.265Z,13.01
2019-04-30T03:02:54.991Z,12.96
2019-04-30T03:05:24.472Z,12.89
2019-04-30T03:07:53.884Z,12.87
2019-04-30T03:10:23.258Z,12.83
2019-04-30T03:12:52.740Z,12.85
2019-04-30T03:15:22.753Z,12.83
2019-04-30T03:18:00.605Z,12.83
2019-04-30T03:20:45.552Z,12.73
2019-04-30T03:23:15.033Z,12.72
2019-04-30T03:25:44.517Z,12.77
2019-04-30T03:28:13.946Z,12.78
2019-04-30T03:30:43.368Z,12.72
2019-04-30T03:33:13.552Z,12.82
2019-04-30T03:35:48.156Z,12.81
2019-04-30T03:38:14.412Z,12.73
2019-04-30T03:40:43.779Z,12.81
2019-04-30T03:43:13.302Z,12.77
2019-04-30T03:45:42.674Z,12.78
2019-04-30T03:48:12.160Z,12.85
2019-04-30T03:50:52.474Z,12.93
2019-04-30T03:53:12.763Z,13.03
2019-04-30T03:55:42.141Z,13.15
2019-04-30T03:58:11.754Z,13.37
2019-04-30T04:01:03.158Z,13.56
2019-04-30T04:03:35.471Z,13.77
2019-04-30T04:06:29.298Z,14.00
2019-04-30T04:09:04.688Z,14.17
2019-04-30T04:11:39.629Z,14.23
2019-04-30T04:14:09.443Z,14.11
2019-04-30T04:16:41.033Z,14.46
2019-04-30T04:19:10.077Z,14.81
2019-04-30T04:21:39.669Z,15.04
2019-04-30T04:24:10.631Z,15.31
2019-04-30T04:26:43.559Z,15.54
2019-04-30T04:29:12.438Z,15.74
2019-04-30T04:31:41.947Z,16.05
2019-04-30T04:34:11.842Z,16.25
2019-04-30T04:36:43.416Z,16.51
2019-04-30T04:39:13.168Z,16.51
2019-04-30T04:41:44.276Z,16.42
2019-04-30T04:44:13.922Z,16.66
2019-04-30T04:46:43.389Z,16.91
2019-04-30T04:49:12.778Z,17.06
2019-04-30T04:51:42.578Z,17.27
2019-04-30T04:54:12.232Z,16.96
2019-04-30T04:56:41.722Z,17.13
2019-04-30T04:59:11.136Z,16.95
2019-04-30T05:01:40.772Z,17.08
2019-04-30T05:04:11.822Z,17.38
2019-04-30T05:06:41.841Z,17.69
2019-04-30T05:09:11.305Z,17.91
2019-04-30T05:11:40.828Z,18.20
2019-04-30T05:14:10.951Z,18.33
2019-04-30T05:16:40.568Z,18.53
2019-04-30T05:19:10.040Z,18.50
2019-04-30T05:21:42.753Z,18.52
2019-04-30T05:24:10.784Z,18.55
2019-04-30T05:26:40.128Z,18.59
2019-04-30T05:29:09.666Z,18.35
2019-04-30T05:31:39.137Z,18.48
2019-04-30T05:34:10.250Z,18.37
2019-04-30T05:36:39.652Z,18.50
2019-04-30T05:39:09.246Z,18.78
2019-04-30T05:41:41.112Z,18.97
2019-04-30T05:44:10.052Z,19.20
2019-04-30T05:46:39.793Z,19.08
2019-04-30T05:49:11.534Z,18.94
2019-04-30T05:51:52.630Z,18.79
2019-04-30T05:54:12.150Z,18.25
2019-04-30T05:56:42.846Z,18.08
2019-04-30T05:59:12.304Z,18.27
2019-04-30T06:01:48.097Z,18.20
2019-04-30T06:04:13.046Z,17.47
2019-04-30T06:06:42.857Z,17.74
2019-04-30T06:09:33.208Z,17.97
2019-04-30T06:12:12.883Z,17.25
2019-04-30T06:15:00.540Z,17.31
2019-04-30T06:17:30.580Z,17.80
2019-04-30T06:20:00.088Z,17.31
2019-04-30T06:22:29.826Z,17.31
2019-04-30T06:24:59.521Z,17.47
2019-04-30T06:27:29.290Z,17.56
2019-04-30T06:29:58.863Z,17.61
2019-04-30T06:32:29.523Z,17.76
2019-04-30T06:34:59.886Z,17.60
2019-04-30T06:37:31.629Z,17.86
2019-04-30T06:40:00.722Z,17.51
2019-04-30T06:42:30.229Z,17.59
2019-04-30T06:45:00.124Z,17.57
2019-04-30T06:47:33.084Z,17.61
2019-04-30T06:50:01.555Z,17.73
2019-04-30T06:52:30.900Z,17.73
2019-04-30T06:55:00.454Z,17.59
2019-04-30T06:57:29.946Z,17.61
2019-04-30T06:59:59.675Z,17.80
2019-04-30T07:02:30.796Z,17.60
2019-04-30T07:05:00.606Z,17.60
2019-04-30T07:07:37.105Z,17.89
2019-04-30T07:10:12.084Z,17.73
2019-04-30T07:13:08.768Z,17.69
2019-04-30T07:15:39.456Z,17.76
2019-04-30T07:18:09.146Z,17.98
2019-04-30T07:20:38.830Z,18.12
2019-04-30T07:23:09.323Z,17.85
2019-04-30T07:25:39.171Z,17.82
2019-04-30T07:28:09.134Z,17.90
2019-04-30T07:30:39.561Z,17.89
2019-04-30T07:33:09.577Z,18.30
2019-04-30T07:35:39.923Z,18.69
2019-04-30T07:38:09.484Z,18.31
2019-04-30T07:40:39.112Z,18.47
2019-04-30T07:43:09.134Z,18.63
2019-04-30T07:45:40.829Z,18.31
2019-04-30T07:48:12.522Z,18.65
2019-04-30T07:50:42.520Z,18.66
2019-04-30T07:53:13.030Z,18.82
2019-04-30T07:55:42.817Z,19.07
2019-04-30T07:58:12.609Z,19.24
2019-04-30T08:00:42.026Z,19.35
2019-04-30T08:03:50.355Z,19.50
2019-04-30T08:06:22.464Z,19.63
2019-04-30T08:08:57.282Z,19.60
2019-04-30T08:11:26.351Z,19.52
2019-04-30T08:13:54.846Z,19.69
2019-04-30T08:16:24.397Z,19.70
2019-04-30T08:19:14.432Z,19.61
2019-04-30T08:21:43.873Z,19.51
2019-04-30T08:24:13.394Z,19.65
2019-04-30T08:26:43.080Z,19.77
2019-04-30T08:29:12.539Z,19.87
2019-04-30T08:31:42.060Z,19.94
2019-04-30T08:34:11.923Z,20.06
2019-04-30T08:36:41.348Z,20.13
2019-04-30T08:39:10.803Z,20.23
2019-04-30T08:41:40.567Z,20.35
2019-04-30T08:44:10.210Z,20.61
2019-04-30T08:46:39.721Z,20.77
2019-04-30T08:49:10.141Z,20.58
2019-04-30T08:51:40.375Z,21.07
2019-04-30T08:54:10.240Z,21.04
2019-04-30T08:56:39.663Z,21.29
2019-04-30T08:59:11.138Z,21.74
2019-04-30T09:01:40.408Z,22.09
2019-04-30T09:04:20.117Z,21.95
2019-04-30T09:06:49.830Z,22.47
2019-04-30T09:09:22.185Z,22.33
2019-04-30T09:11:55.392Z,22.36
2019-04-30T09:14:22.650Z,22.06
2019-04-30T09:16:52.223Z,21.87
2019-04-30T09:19:21.806Z,22.32
2019-04-30T09:21:51.249Z,22.20
2019-04-30T09:24:20.653Z,21.98
2019-04-30T09:26:50.153Z,21.79
2019-04-30T09:29:19.645Z,21.70
2019-04-30T09:31:49.462Z,21.73
2019-04-30T09:34:21.004Z,21.92
2019-04-30T09:36:50.054Z,21.94
2019-04-30T09:39:20.649Z,22.18
2019-04-30T09:41:50.690Z,22.38
2019-04-30T09:44:20.210Z,22.76
2019-04-30T09:46:49.747Z,23.14
2019-04-30T09:49:19.541Z,23.28
2019-04-30T09:51:50.074Z,23.36
2019-04-30T09:54:20.627Z,23.27
2019-04-30T09:56:52.692Z,23.07
2019-04-30T09:59:21.515Z,23.17
2019-04-30T10:01:51.212Z,22.81
2019-04-30T10:04:21.501Z,22.94
2019-04-30T10:06:51.563Z,23.09
2019-04-30T10:09:20.981Z,23.05
2019-04-30T10:12:02.311Z,23.17
2019-04-30T10:14:31.942Z,23.27
2019-04-30T10:17:07.041Z,23.59
2019-04-30T10:19:36.478Z,23.46
2019-04-30T10:22:06.093Z,23.42
2019-04-30T10:24:35.673Z,23.78
2019-04-30T10:27:07.155Z,24.14
2019-04-30T10:29:36.353Z,24.26
2019-04-30T10:32:08.719Z,24.58
2019-04-30T10:34:38.018Z,24.96
2019-04-30T10:37:09.003Z,24.72
2019-04-30T10:39:39.033Z,24.86
2019-04-30T10:42:09.111Z,24.55
2019-04-30T10:44:38.490Z,24.14
2019-04-30T10:47:09.342Z,24.30
2019-04-30T10:49:39.144Z,24.10
2019-04-30T10:52:09.322Z,24.18
2019-04-30T10:54:39.017Z,24.26
2019-04-30T10:57:08.783Z,24.10
2019-04-30T10:59:38.356Z,24.17
2019-04-30T11:02:09.066Z,24.31
2019-04-30T11:04:38.624Z,24.43
2019-04-30T11:07:08.640Z,24.61
2019-04-30T11:09:39.356Z,24.41
2019-04-30T11:12:09.561Z,24.78
2019-04-30T11:14:39.159Z,25.29
2019-04-30T11:17:09.932Z,25.66
2019-04-30T11:19:39.720Z,25.98
2019-04-30T11:22:09.603Z,25.84
2019-04-30T11:24:55.530Z,25.64
2019-04-30T11:27:11.480Z,25.80
2019-04-30T11:29:41.689Z,25.25
2019-04-30T11:32:17.665Z,25.48
2019-04-30T11:34:47.243Z,25.56
2019-04-30T11:37:17.009Z,25.83
2019-04-30T11:39:46.444Z,25.98
2019-04-30T11:42:15.986Z,25.59
2019-04-30T11:44:45.455Z,25.56
2019-04-30T11:47:31.553Z,25.48
2019-04-30T11:50:00.943Z,25.59
2019-04-30T11:52:30.632Z,25.39
2019-04-30T11:55:00.244Z,25.55
2019-04-30T11:57:29.926Z,25.52
2019-04-30T11:59:59.414Z,25.64
2019-04-30T12:02:52.651Z,25.98
2019-04-30T12:05:20.891Z,26.00
2019-04-30T12:08:12.296Z,26.19
2019-04-30T12:10:54.554Z,26.13
2019-04-30T12:13:25.227Z,26.48
2019-04-30T12:15:55.592Z,26.49
2019-04-30T12:18:25.174Z,26.51
2019-04-30T12:20:54.577Z,26.57
2019-04-30T12:23:24.038Z,26.67
2019-04-30T12:25:53.513Z,26.61
2019-04-30T12:28:22.949Z,26.55
2019-04-30T12:30:52.394Z,26.35
2019-04-30T12:33:21.754Z,26.58
2019-04-30T12:35:51.399Z,26.46
2019-04-30T12:38:20.942Z,26.35
2019-04-30T12:40:50.519Z,26.40
2019-04-30T12:43:19.935Z,26.70
2019-04-30T12:46:02.025Z,26.64
2019-04-30T12:48:32.655Z,26.49
2019-04-30T12:51:14.656Z,26.37
2019-04-30T12:53:50.422Z,26.24
2019-04-30T12:56:38.718Z,25.95
2019-04-30T12:59:08.252Z,25.62
2019-04-30T13:01:39.899Z,25.13
2019-04-30T13:04:09.805Z,24.87
2019-04-30T13:06:39.886Z,24.85
2019-04-30T13:09:11.458Z,24.72
2019-04-30T13:11:42.028Z,24.72
2019-04-30T13:14:12.580Z,24.49
2019-04-30T13:16:42.366Z,24.49
2019-04-30T13:19:11.718Z,24.26
2019-04-30T13:21:41.153Z,24.06
2019-04-30T13:24:10.703Z,24.06
2019-04-30T13:26:40.297Z,24.14
2019-04-30T13:29:18.086Z,24.23
2019-04-30T13:31:50.103Z,24.17
2019-04-30T13:34:39.497Z,24.08
2019-04-30T13:37:09.334Z,24.06
2019-04-30T13:39:50.643Z,23.93
2019-04-30T13:42:20.611Z,23.83
2019-04-30T13:44:50.309Z,23.98
2019-04-30T13:47:19.798Z,24.05
2019-04-30T13:49:49.561Z,24.14
2019-04-30T13:52:19.090Z,24.18
2019-04-30T13:54:48.475Z,24.12
2019-04-30T13:57:17.840Z,24.06
2019-04-30T13:59:50.888Z,24.09
2019-04-30T14:02:18.712Z,24.14
2019-04-30T14:04:54.895Z,24.21
2019-04-30T14:07:44.227Z,24.16
2019-04-30T14:10:14.042Z,24.16
2019-04-30T14:12:52.553Z,24.09
2019-04-30T14:15:22.066Z,24.11
2019-04-30T14:17:51.441Z,24.08
2019-04-30T14:20:21.664Z,24.03
2019-04-30T14:22:51.156Z,23.99
2019-04-30T14:25:20.528Z,24.03
2019-04-30T14:27:54.526Z,24.04
2019-04-30T14:30:23.443Z,24.04
2019-04-30T14:32:52.826Z,24.07
2019-04-30T14:35:22.498Z,24.21
2019-04-30T14:37:52.110Z,24.38
2019-04-30T14:40:22.391Z,24.39
2019-04-30T14:43:09.677Z,24.26
2019-04-30T14:45:55.674Z,24.25
2019-04-30T14:48:32.100Z,24.31
2019-04-30T14:51:02.006Z,24.22
2019-04-30T14:53:54.424Z,23.99
2019-04-30T14:56:45.663Z,23.78
2019-04-30T14:59:32.832Z,23.59
2019-04-30T15:02:21.145Z,23.47
2019-04-30T15:04:51.572Z,23.45
2019-04-30T15:07:21.154Z,23.44
2019-04-30T15:09:50.669Z,23.38
2019-04-30T15:12:20.101Z,23.30
2019-04-30T15:14:49.664Z,23.28
2019-04-30T15:17:19.053Z,23.08
2019-04-30T15:19:49.771Z,22.60
2019-04-30T15:22:19.648Z,22.15
2019-04-30T15:24:49.294Z,21.84
2019-04-30T15:27:19.201Z,21.70
2019-04-30T15:29:56.588Z,21.51
2019-04-30T15:32:19.868Z,21.50
2019-04-30T15:34:49.379Z,21.48
2019-04-30T15:37:23.491Z,21.53
2019-04-30T15:39:52.258Z,21.54
2019-04-30T15:42:23.263Z,21.43
2019-04-30T15:44:52.790Z,21.38
2019-04-30T15:47:23.120Z,21.38
2019-04-30T15:49:52.581Z,21.17
2019-04-30T15:52:22.085Z,21.05
2019-04-30T15:54:51.451Z,20.96
2019-04-30T15:57:21.027Z,20.94
2019-04-30T15:59:52.059Z,20.85
2019-04-30T16:02:53.473Z,20.78
2019-04-30T16:05:36.536Z,20.73
2019-04-30T16:08:23.686Z,20.59
2019-04-30T16:11:07.087Z,20.51
2019-04-30T16:13:54.582Z,20.54
2019-04-30T16:16:26.497Z,20.54
2019-04-30T16:18:55.984Z,20.50
2019-04-30T16:21:25.598Z,20.54
2019-04-30T16:23:54.989Z,20.51
2019-04-30T16:26:24.473Z,20.46
2019-04-30T16:28:53.968Z,20.43
2019-04-30T16:31:23.437Z,20.36
2019-04-30T16:33:52.815Z,20.29
2019-04-30T16:36:22.426Z,20.20
2019-04-30T16:38:51.813Z,20.14
2019-04-30T16:41:31.046Z,20.07
2019-04-30T16:43:52.432Z,20.02
2019-04-30T16:46:21.908Z,19.98
2019-04-30T16:48:51.266Z,19.93
2019-04-30T16:51:20.696Z,19.87
2019-04-30T16:53:50.151Z,19.82
2019-04-30T16:56:20.061Z,19.75
2019-04-30T16:59:03.730Z,19.71
2019-04-30T17:01:34.738Z,19.68
2019-04-30T17:04:16.583Z,19.62
2019-04-30T17:06:50.610Z,19.59
2019-04-30T17:09:29.671Z,19.52
2019-04-30T17:12:09.811Z,19.44
2019-04-30T17:14:40.317Z,19.35
2019-04-30T17:17:09.814Z,19.23
2019-04-30T17:19:39.453Z,19.20
2019-04-30T17:22:08.922Z,19.13
2019-04-30T17:24:39.384Z,19.06
2019-04-30T17:27:17.151Z,19.03
2019-04-30T17:29:40.643Z,18.96
2019-04-30T17:32:10.600Z,18.91
2019-04-30T17:34:40.291Z,18.87
2019-04-30T17:37:09.790Z,18.76
2019-04-30T17:39:41.084Z,18.63
2019-04-30T17:42:10.348Z,18.45
2019-04-30T17:44:39.939Z,18.45
2019-04-30T17:47:09.489Z,18.35
2019-04-30T17:49:38.849Z,18.26
2019-04-30T17:52:08.827Z,18.16
2019-04-30T17:54:38.391Z,18.09
2019-04-30T17:57:10.447Z,18.08
2019-04-30T17:59:39.032Z,18.06
2019-04-30T18:02:09.876Z,18.11
2019-04-30T18:04:39.235Z,18.11
2019-04-30T18:07:09.924Z,18.16
2019-04-30T18:09:39.682Z,18.18
2019-04-30T18:12:09.492Z,18.21
2019-04-30T18:14:39.560Z,18.35
2019-04-30T18:17:09.428Z,18.42
2019-04-30T18:20:04.432Z,18.40
2019-04-30T18:22:42.047Z,18.50
2019-04-30T18:25:23.724Z,18.57
2019-04-30T18:27:59.522Z,18.50
2019-04-30T18:30:33.496Z,18.52
2019-04-30T18:33:04.442Z,18.47
2019-04-30T18:35:33.997Z,18.42
2019-04-30T18:38:03.609Z,18.32
2019-04-30T18:40:33.013Z,18.27
2019-04-30T18:43:02.391Z,18.18
2019-04-30T18:45:32.062Z,18.25
2019-04-30T18:48:01.831Z,18.41
2019-04-30T18:50:31.336Z,18.69
2019-04-30T18:53:03.325Z,18.69
2019-04-30T18:55:32.800Z,18.69
2019-04-30T18:58:02.301Z,18.74
2019-04-30T19:00:43.696Z,18.85
2019-04-30T19:03:13.162Z,18.87
2019-04-30T19:05:45.579Z,18.85
2019-04-30T19:08:32.534Z,18.81
2019-04-30T19:11:36.199Z,18.88
2019-04-30T19:14:23.740Z,18.87
2019-04-30T19:17:19.475Z,18.79
2019-04-30T19:20:08.609Z,18.71
2019-04-30T19:22:39.763Z,18.46
2019-04-30T19:25:09.525Z,18.46
2019-04-30T19:27:38.920Z,18.32
2019-04-30T19:30:09.368Z,18.37
2019-04-30T19:32:39.153Z,18.42
2019-04-30T19:35:09.222Z,18.36
2019-04-30T19:37:40.290Z,18.30
2019-04-30T19:40:10.751Z,18.21
2019-04-30T19:42:40.417Z,18.15
2019-04-30T19:45:12.486Z,18.10
2019-04-30T19:47:41.261Z,17.94
2019-04-30T19:50:10.844Z,17.94
2019-04-30T19:52:40.307Z,17.97
2019-04-30T19:55:09.972Z,17.97
2019-04-30T19:57:39.923Z,17.90
2019-04-30T20:00:09.833Z,17.70
2019-04-30T20:02:39.299Z,17.56
2019-04-30T20:05:09.125Z,17.56
2019-04-30T20:07:40.590Z,17.54
2019-04-30T20:10:09.889Z,17.46
2019-04-30T20:12:39.634Z,17.38
2019-04-30T20:15:17.208Z,17.26
2019-04-30T20:17:40.321Z,17.16
2019-04-30T20:20:12.014Z,17.18
2019-04-30T20:22:41.384Z,17.09
2019-04-30T20:25:10.869Z,17.15
2019-04-30T20:27:40.391Z,17.12
2019-04-30T20:30:11.338Z,17.09
2019-04-30T20:32:40.708Z,17.06
2019-04-30T20:35:10.232Z,17.01
2019-04-30T20:37:59.457Z,16.98
2019-04-30T20:40:43.033Z,16.96
2019-04-30T20:43:02.183Z,16.97
2019-04-30T20:45:31.638Z,16.94
2019-04-30T20:48:01.054Z,16.89
2019-04-30T20:50:30.914Z,16.90
2019-04-30T20:53:00.410Z,16.91
2019-04-30T20:55:29.905Z,16.88
2019-04-30T20:57:59.529Z,16.82
2019-04-30T21:00:28.940Z,16.80
2019-04-30T21:02:59.836Z,16.73
2019-04-30T21:05:29.559Z,16.67
2019-04-30T21:07:58.969Z,16.61
2019-04-30T21:10:29.675Z,16.54
2019-04-30T21:12:59.432Z,16.47
2019-04-30T21:15:29.734Z,16.43
2019-04-30T21:17:59.317Z,16.35
2019-04-30T21:20:29.029Z,16.32
2019-04-30T21:22:59.688Z,16.28
2019-04-30T21:25:29.379Z,16.25
2019-04-30T21:27:59.907Z,16.22
2019-04-30T21:30:29.608Z,16.19
2019-04-30T21:33:11.541Z,16.17
2019-04-30T21:35:50.764Z,16.16
2019-04-30T21:38:20.455Z,16.12
2019-04-30T21:40:50.045Z,16.06
2019-04-30T21:43:19.422Z,16.00
2019-04-30T21:45:49.405Z,15.98
2019-04-30T21:48:19.249Z,15.91
2019-04-30T21:50:49.722Z,15.82
2019-04-30T21:53:19.642Z,15.70
2019-04-30T21:55:49.708Z,15.70
2019-04-30T21:58:20.336Z,15.63
2019-04-30T22:01:11.166Z,15.58
2019-04-30T22:03:41.106Z,15.59
2019-04-30T22:06:10.777Z,15.55
2019-04-30T22:08:40.150Z,15.48
2019-04-30T22:11:09.846Z,15.51
2019-04-30T22:13:40.058Z,15.58
2019-04-30T22:16:10.710Z,15.54
2019-04-30T22:18:40.068Z,15.53
2019-04-30T22:21:10.419Z,15.50
2019-04-30T22:23:39.972Z,15.46
2019-04-30T22:26:09.434Z,15.42
2019-04-30T22:28:39.128Z,15.37
2019-04-30T22:31:09.941Z,15.31
2019-04-30T22:33:39.451Z,15.25
2019-04-30T22:36:20.700Z,15.20
2019-04-30T22:39:09.267Z,15.15
2019-04-30T22:41:39.764Z,15.07
2019-04-30T22:44:09.529Z,15.01
2019-04-30T22:46:39.433Z,14.96
2019-04-30T22:49:08.955Z,14.93
2019-04-30T22:51:38.332Z,14.87
2019-04-30T22:54:07.712Z,14.82
2019-04-30T22:56:37.205Z,14.76
2019-04-30T22:59:06.558Z,14.67
2019-04-30T23:02:07.266Z,14.61
2019-04-30T23:04:41.405Z,14.58
2019-04-30T23:07:10.986Z,14.52
2019-04-30T23:09:40.341Z,14.46
2019-04-30T23:12:09.710Z,14.37
2019-04-30T23:14:39.193Z,14.33
2019-04-30T23:17:08.648Z,14.26
2019-04-30T23:19:38.017Z,14.19
2019-04-30T23:22:07.536Z,14.08
2019-04-30T23:24:36.914Z,14.00
2019-04-30T23:27:06.309Z,13.90
2019-04-30T23:29:35.803Z,13.85
2019-04-30T23:32:05.642Z,13.78
2019-04-30T23:34:35.004Z,13.68
2019-04-30T23:37:04.513Z,13.62
2019-04-30T23:39:33.974Z,13.56
2019-04-30T23:42:03.410Z,13.51
2019-04-30T23:44:32.804Z,13.45
2019-04-30T23:47:02.182Z,13.28
2019-04-30T23:49:32.936Z,13.29
2019-04-30T23:52:02.415Z,13.28
2019-04-30T23:54:31.787Z,13.25
2019-04-30T23:57:01.187Z,13.29
2019-04-30T23:59:30.663Z,13.24
